sensor_id;sensor_type;location;lat;lon;timestamp;P1;durP1;ratioP1;P2;durP2;ratioP2
50858;SDS011;36826;47.514;19.056;2022-09-09T00:04:27;0.95;;;0.20;;
50858;SDS011;36826;47.514;19.056;2022-09-09T00:09:31;1.13;;;0.20;;
50858;SDS011;36826;47.514;19.056;2022-09-09T00:12:47;0.57;;;0.20;;
50858;SDS011;36826;47.514;19.056;2022-09-09T00:21:47;1.55;;;0.20;;
50858;SDS011;36826;47.514;19.056;2022-09-09T00:24:38;0.90;;;0.20;;
50858;SDS011;36826;47.514;19.056;2022-09-09T00:31:11;0.60;;;0.20;;
50858;SDS011;36826;47.514;19.056;2022-09-09T00:33:41;1.83;;;0.22;;
50858;SDS011;36826;47.514;19.056;2022-09-09T00:36:18;0.70;;;0.20;;
50858;SDS011;36826;47.514;19.056;2022-09-09T00:38:51;1.23;;;0.30;;
50858;SDS011;36826;47.514;19.056;2022-09-09T00:44:25;1.27;;;0.30;;
50858;SDS011;36826;47.514;19.056;2022-09-09T00:50:00;0.70;;;0.28;;
50858;SDS011;36826;47.514;19.056;2022-09-09T00:52:49;0.60;;;0.20;;
50858;SDS011;36826;47.514;19.056;2022-09-09T00:55:34;0.55;;;0.28;;
50858;SDS011;36826;47.514;19.056;2022-09-09T00:58:16;0.95;;;0.47;;
50858;SDS011;36826;47.514;19.056;2022-09-09T01:00:43;1.05;;;0.30;;
50858;SDS011;36826;47.514;19.056;2022-09-09T01:11:51;1.75;;;0.38;;
50858;SDS011;36826;47.514;19.056;2022-09-09T01:17:04;4.07;;;0.20;;
50858;SDS011;36826;47.514;19.056;2022-09-09T01:22:33;1.38;;;0.50;;
50858;SDS011;36826;47.514;19.056;2022-09-09T01:25:29;1.88;;;0.55;;
50858;SDS011;36826;47.514;19.056;2022-09-09T01:28:08;2.42;;;0.47;;
50858;SDS011;36826;47.514;19.056;2022-09-09T01:30:39;2.15;;;0.60;;
50858;SDS011;36826;47.514;19.056;2022-09-09T01:33:07;1.23;;;0.43;;
50858;SDS011;36826;47.514;19.056;2022-09-09T01:36:00;0.95;;;0.38;;
50858;SDS011;36826;47.514;19.056;2022-09-09T01:38:28;1.10;;;0.38;;
50858;SDS011;36826;47.514;19.056;2022-09-09T01:40:55;1.25;;;0.40;;
50858;SDS011;36826;47.514;19.056;2022-09-09T01:43:21;2.30;;;0.30;;
50858;SDS011;36826;47.514;19.056;2022-09-09T01:45:49;1.38;;;0.30;;
50858;SDS011;36826;47.514;19.056;2022-09-09T01:48:18;0.88;;;0.30;;
50858;SDS011;36826;47.514;19.056;2022-09-09T01:50:48;1.85;;;0.40;;
50858;SDS011;36826;47.514;19.056;2022-09-09T01:53:16;0.90;;;0.30;;
50858;SDS011;36826;47.514;19.056;2022-09-09T01:55:51;1.17;;;0.38;;
50858;SDS011;36826;47.514;19.056;2022-09-09T01:59:10;2.25;;;0.38;;
50858;SDS011;36826;47.514;19.056;2022-09-09T02:01:46;0.85;;;0.35;;
50858;SDS011;36826;47.514;19.056;2022-09-09T02:04:20;1.52;;;0.38;;
50858;SDS011;36826;47.514;19.056;2022-09-09T02:06:49;1.20;;;0.20;;
50858;SDS011;36826;47.514;19.056;2022-09-09T02:09:19;1.73;;;0.30;;
50858;SDS011;36826;47.514;19.056;2022-09-09T02:11:48;2.33;;;0.20;;
50858;SDS011;36826;47.514;19.056;2022-09-09T02:14:34;1.25;;;0.47;;
50858;SDS011;36826;47.514;19.056;2022-09-09T02:17:11;0.50;;;0.10;;
50858;SDS011;36826;47.514;19.056;2022-09-09T02:19:45;0.73;;;0.10;;
50858;SDS011;36826;47.514;19.056;2022-09-09T02:22:15;0.65;;;0.13;;
50858;SDS011;36826;47.514;19.056;2022-09-09T02:24:45;2.35;;;0.20;;
50858;SDS011;36826;47.514;19.056;2022-09-09T02:27:13;1.15;;;0.20;;
50858;SDS011;36826;47.514;19.056;2022-09-09T02:29:43;0.90;;;0.13;;
50858;SDS011;36826;47.514;19.056;2022-09-09T02:32:15;0.65;;;0.10;;
50858;SDS011;36826;47.514;19.056;2022-09-09T02:37:42;1.85;;;0.40;;
50858;SDS011;36826;47.514;19.056;2022-09-09T02:40:30;2.15;;;0.10;;
50858;SDS011;36826;47.514;19.056;2022-09-09T02:43:01;1.17;;;0.40;;
50858;SDS011;36826;47.514;19.056;2022-09-09T02:45:31;0.93;;;0.30;;
50858;SDS011;36826;47.514;19.056;2022-09-09T02:48:51;1.98;;;0.20;;
50858;SDS011;36826;47.514;19.056;2022-09-09T02:53:47;1.33;;;0.30;;
50858;SDS011;36826;47.514;19.056;2022-09-09T02:56:21;2.22;;;0.57;;
50858;SDS011;36826;47.514;19.056;2022-09-09T02:58:53;0.98;;;0.60;;
50858;SDS011;36826;47.514;19.056;2022-09-09T03:01:21;1.23;;;0.60;;
50858;SDS011;36826;47.514;19.056;2022-09-09T03:03:48;1.00;;;0.60;;
50858;SDS011;36826;47.514;19.056;2022-09-09T03:06:13;1.77;;;0.50;;
50858;SDS011;36826;47.514;19.056;2022-09-09T03:08:39;1.00;;;0.50;;
50858;SDS011;36826;47.514;19.056;2022-09-09T03:11:07;0.90;;;0.52;;
50858;SDS011;36826;47.514;19.056;2022-09-09T03:13:35;0.80;;;0.50;;
50858;SDS011;36826;47.514;19.056;2022-09-09T03:16:08;0.77;;;0.50;;
50858;SDS011;36826;47.514;19.056;2022-09-09T03:18:36;1.13;;;0.50;;
50858;SDS011;36826;47.514;19.056;2022-09-09T03:21:02;1.92;;;0.73;;
50858;SDS011;36826;47.514;19.056;2022-09-09T03:23:28;1.67;;;0.77;;
50858;SDS011;36826;47.514;19.056;2022-09-09T03:25:54;1.70;;;0.80;;
50858;SDS011;36826;47.514;19.056;2022-09-09T03:28:22;1.77;;;0.82;;
50858;SDS011;36826;47.514;19.056;2022-09-09T03:30:57;1.30;;;1.00;;
50858;SDS011;36826;47.514;19.056;2022-09-09T03:33:24;2.80;;;1.33;;
50858;SDS011;36826;47.514;19.056;2022-09-09T03:35:50;2.13;;;1.27;;
50858;SDS011;36826;47.514;19.056;2022-09-09T03:38:16;1.40;;;1.10;;
50858;SDS011;36826;47.514;19.056;2022-09-09T03:40:48;2.38;;;1.60;;
50858;SDS011;36826;47.514;19.056;2022-09-09T03:43:37;2.10;;;1.30;;
50858;SDS011;36826;47.514;19.056;2022-09-09T03:46:03;1.95;;;1.70;;
50858;SDS011;36826;47.514;19.056;2022-09-09T03:48:30;3.05;;;1.42;;
50858;SDS011;36826;47.514;19.056;2022-09-09T03:50:56;1.95;;;1.38;;
50858;SDS011;36826;47.514;19.056;2022-09-09T03:53:23;3.38;;;1.38;;
50858;SDS011;36826;47.514;19.056;2022-09-09T03:55:54;2.50;;;1.20;;
50858;SDS011;36826;47.514;19.056;2022-09-09T03:58:24;3.67;;;0.90;;
50858;SDS011;36826;47.514;19.056;2022-09-09T04:01:05;1.73;;;0.90;;
50858;SDS011;36826;47.514;19.056;2022-09-09T04:03:39;1.42;;;1.10;;
50858;SDS011;36826;47.514;19.056;2022-09-09T04:06:12;2.20;;;1.20;;
50858;SDS011;36826;47.514;19.056;2022-09-09T04:08:39;2.83;;;1.33;;
50858;SDS011;36826;47.514;19.056;2022-09-09T04:11:07;2.97;;;1.20;;
50858;SDS011;36826;47.514;19.056;2022-09-09T04:13:33;1.50;;;0.90;;
50858;SDS011;36826;47.514;19.056;2022-09-09T04:16:03;2.67;;;1.10;;
50858;SDS011;36826;47.514;19.056;2022-09-09T04:18:32;1.20;;;1.00;;
50858;SDS011;36826;47.514;19.056;2022-09-09T04:20:57;2.63;;;1.02;;
50858;SDS011;36826;47.514;19.056;2022-09-09T04:23:24;3.38;;;0.93;;
50858;SDS011;36826;47.514;19.056;2022-09-09T04:25:52;2.05;;;0.70;;
50858;SDS011;36826;47.514;19.056;2022-09-09T04:28:20;1.15;;;0.50;;
50858;SDS011;36826;47.514;19.056;2022-09-09T04:30:54;2.53;;;0.50;;
50858;SDS011;36826;47.514;19.056;2022-09-09T04:33:22;1.33;;;0.70;;
50858;SDS011;36826;47.514;19.056;2022-09-09T04:35:52;2.55;;;0.50;;
50858;SDS011;36826;47.514;19.056;2022-09-09T04:38:23;1.80;;;0.50;;
50858;SDS011;36826;47.514;19.056;2022-09-09T04:40:58;1.00;;;0.40;;
50858;SDS011;36826;47.514;19.056;2022-09-09T04:43:29;1.30;;;0.68;;
50858;SDS011;36826;47.514;19.056;2022-09-09T04:45:55;1.42;;;0.90;;
50858;SDS011;36826;47.514;19.056;2022-09-09T04:48:22;1.83;;;1.20;;
50858;SDS011;36826;47.514;19.056;2022-09-09T04:51:00;1.77;;;1.30;;
50858;SDS011;36826;47.514;19.056;2022-09-09T04:53:29;2.28;;;1.30;;
50858;SDS011;36826;47.514;19.056;2022-09-09T04:58:53;3.10;;;0.90;;
50858;SDS011;36826;47.514;19.056;2022-09-09T05:01:22;1.92;;;0.90;;
50858;SDS011;36826;47.514;19.056;2022-09-09T05:03:52;2.60;;;0.90;;
50858;SDS011;36826;47.514;19.056;2022-09-09T05:06:21;1.73;;;0.88;;
50858;SDS011;36826;47.514;19.056;2022-09-09T05:18:38;2.40;;;1.10;;
50858;SDS011;36826;47.514;19.056;2022-09-09T05:21:30;2.50;;;1.27;;
50858;SDS011;36826;47.514;19.056;2022-09-09T05:24:24;2.80;;;1.00;;
50858;SDS011;36826;47.514;19.056;2022-09-09T05:27:00;2.55;;;1.20;;
50858;SDS011;36826;47.514;19.056;2022-09-09T05:29:30;1.60;;;0.80;;
50858;SDS011;36826;47.514;19.056;2022-09-09T05:32:03;3.05;;;0.93;;
50858;SDS011;36826;47.514;19.056;2022-09-09T05:34:29;2.17;;;0.90;;
50858;SDS011;36826;47.514;19.056;2022-09-09T05:36:56;1.27;;;0.60;;
50858;SDS011;36826;47.514;19.056;2022-09-09T05:39:34;1.58;;;0.45;;
50858;SDS011;36826;47.514;19.056;2022-09-09T05:42:04;1.00;;;0.40;;
50858;SDS011;36826;47.514;19.056;2022-09-09T05:44:54;3.03;;;0.35;;
50858;SDS011;36826;47.514;19.056;2022-09-09T05:47:35;1.52;;;0.70;;
50858;SDS011;36826;47.514;19.056;2022-09-09T05:50:06;1.45;;;0.45;;
50858;SDS011;36826;47.514;19.056;2022-09-09T05:56:26;1.60;;;0.50;;
50858;SDS011;36826;47.514;19.056;2022-09-09T06:01:42;1.67;;;0.60;;
50858;SDS011;36826;47.514;19.056;2022-09-09T06:04:25;2.13;;;0.60;;
50858;SDS011;36826;47.514;19.056;2022-09-09T06:06:54;2.47;;;0.60;;
50858;SDS011;36826;47.514;19.056;2022-09-09T06:09:22;1.30;;;0.40;;
50858;SDS011;36826;47.514;19.056;2022-09-09T06:11:51;3.53;;;0.80;;
50858;SDS011;36826;47.514;19.056;2022-09-09T06:14:24;2.72;;;0.50;;
50858;SDS011;36826;47.514;19.056;2022-09-09T06:16:53;2.10;;;0.43;;
50858;SDS011;36826;47.514;19.056;2022-09-09T06:19:19;2.05;;;0.30;;
50858;SDS011;36826;47.514;19.056;2022-09-09T06:21:49;2.97;;;0.55;;
50858;SDS011;36826;47.514;19.056;2022-09-09T06:24:16;1.63;;;0.45;;
50858;SDS011;36826;47.514;19.056;2022-09-09T06:26:44;1.42;;;0.40;;
50858;SDS011;36826;47.514;19.056;2022-09-09T06:29:10;2.38;;;0.45;;
50858;SDS011;36826;47.514;19.056;2022-09-09T06:31:37;2.13;;;0.50;;
50858;SDS011;36826;47.514;19.056;2022-09-09T06:34:06;3.00;;;0.40;;
50858;SDS011;36826;47.514;19.056;2022-09-09T06:36:34;3.05;;;0.32;;
50858;SDS011;36826;47.514;19.056;2022-09-09T06:39:02;3.17;;;0.40;;
50858;SDS011;36826;47.514;19.056;2022-09-09T06:41:28;4.47;;;0.60;;
50858;SDS011;36826;47.514;19.056;2022-09-09T06:43:55;1.38;;;0.30;;
50858;SDS011;36826;47.514;19.056;2022-09-09T06:46:26;3.22;;;0.50;;
50858;SDS011;36826;47.514;19.056;2022-09-09T06:48:53;1.10;;;0.45;;
50858;SDS011;36826;47.514;19.056;2022-09-09T06:51:28;2.22;;;0.45;;
50858;SDS011;36826;47.514;19.056;2022-09-09T06:53:57;2.90;;;0.60;;
50858;SDS011;36826;47.514;19.056;2022-09-09T06:56:42;1.70;;;0.68;;
50858;SDS011;36826;47.514;19.056;2022-09-09T06:59:10;2.22;;;0.68;;
50858;SDS011;36826;47.514;19.056;2022-09-09T07:01:40;2.75;;;0.55;;
50858;SDS011;36826;47.514;19.056;2022-09-09T07:04:16;1.50;;;0.52;;
50858;SDS011;36826;47.514;19.056;2022-09-09T07:06:44;2.13;;;0.30;;
50858;SDS011;36826;47.514;19.056;2022-09-09T07:09:13;3.05;;;0.63;;
50858;SDS011;36826;47.514;19.056;2022-09-09T07:11:47;3.10;;;0.32;;
50858;SDS011;36826;47.514;19.056;2022-09-09T07:14:18;4.22;;;0.40;;
50858;SDS011;36826;47.514;19.056;2022-09-09T07:16:48;2.42;;;0.35;;
50858;SDS011;36826;47.514;19.056;2022-09-09T07:19:15;2.45;;;0.60;;
50858;SDS011;36826;47.514;19.056;2022-09-09T07:21:44;3.78;;;0.60;;
50858;SDS011;36826;47.514;19.056;2022-09-09T07:24:10;3.55;;;0.57;;
50858;SDS011;36826;47.514;19.056;2022-09-09T07:26:37;4.03;;;0.47;;
50858;SDS011;36826;47.514;19.056;2022-09-09T07:29:04;7.32;;;1.95;;
50858;SDS011;36826;47.514;19.056;2022-09-09T07:31:35;3.70;;;0.45;;
50858;SDS011;36826;47.514;19.056;2022-09-09T07:34:02;4.50;;;0.43;;
50858;SDS011;36826;47.514;19.056;2022-09-09T07:36:31;2.60;;;0.50;;
50858;SDS011;36826;47.514;19.056;2022-09-09T07:39:00;1.85;;;0.28;;
50858;SDS011;36826;47.514;19.056;2022-09-09T07:41:29;2.45;;;0.30;;
50858;SDS011;36826;47.514;19.056;2022-09-09T07:44:04;1.83;;;0.20;;
50858;SDS011;36826;47.514;19.056;2022-09-09T07:46:32;1.60;;;0.20;;
50858;SDS011;36826;47.514;19.056;2022-09-09T07:49:09;2.58;;;0.40;;
50858;SDS011;36826;47.514;19.056;2022-09-09T07:51:37;2.65;;;0.22;;
50858;SDS011;36826;47.514;19.056;2022-09-09T07:54:07;2.97;;;0.30;;
50858;SDS011;36826;47.514;19.056;2022-09-09T07:56:39;2.33;;;0.20;;
50858;SDS011;36826;47.514;19.056;2022-09-09T07:59:15;1.30;;;0.15;;
50858;SDS011;36826;47.514;19.056;2022-09-09T08:01:42;3.35;;;0.20;;
50858;SDS011;36826;47.514;19.056;2022-09-09T08:04:16;0.65;;;0.10;;
50858;SDS011;36826;47.514;19.056;2022-09-09T08:06:48;1.45;;;0.20;;
50858;SDS011;36826;47.514;19.056;2022-09-09T08:09:17;2.03;;;0.20;;
50858;SDS011;36826;47.514;19.056;2022-09-09T08:11:43;0.95;;;0.10;;
50858;SDS011;36826;47.514;19.056;2022-09-09T08:14:09;0.52;;;0.10;;
50858;SDS011;36826;47.514;19.056;2022-09-09T08:16:37;2.63;;;0.20;;
50858;SDS011;36826;47.514;19.056;2022-09-09T08:19:06;1.85;;;0.20;;
50858;SDS011;36826;47.514;19.056;2022-09-09T08:21:35;1.25;;;0.20;;
50858;SDS011;36826;47.514;19.056;2022-09-09T08:24:02;1.08;;;0.17;;
50858;SDS011;36826;47.514;19.056;2022-09-09T08:26:37;0.88;;;0.20;;
50858;SDS011;36826;47.514;19.056;2022-09-09T08:29:16;0.90;;;0.10;;
50858;SDS011;36826;47.514;19.056;2022-09-09T08:31:47;1.17;;;0.10;;
50858;SDS011;36826;47.514;19.056;2022-09-09T08:34:21;0.52;;;0.10;;
50858;SDS011;36826;47.514;19.056;2022-09-09T08:36:47;1.27;;;0.20;;
50858;SDS011;36826;47.514;19.056;2022-09-09T08:39:20;1.05;;;0.13;;
50858;SDS011;36826;47.514;19.056;2022-09-09T08:47:59;0.65;;;0.10;;
50858;SDS011;36826;47.514;19.056;2022-09-09T08:50:41;1.40;;;0.20;;
50858;SDS011;36826;47.514;19.056;2022-09-09T08:53:15;1.60;;;0.20;;
50858;SDS011;36826;47.514;19.056;2022-09-09T08:56:06;0.60;;;0.13;;
50858;SDS011;36826;47.514;19.056;2022-09-09T08:58:53;3.20;;;0.30;;
50858;SDS011;36826;47.514;19.056;2022-09-09T09:07:11;2.35;;;0.10;;
50858;SDS011;36826;47.514;19.056;2022-09-09T09:09:42;1.02;;;0.50;;
50858;SDS011;36826;47.514;19.056;2022-09-09T09:12:26;0.82;;;0.10;;
50858;SDS011;36826;47.514;19.056;2022-09-09T09:14:56;0.60;;;0.20;;
50858;SDS011;36826;47.514;19.056;2022-09-09T09:17:23;0.73;;;0.20;;
50858;SDS011;36826;47.514;19.056;2022-09-09T09:19:59;0.50;;;0.10;;
50858;SDS011;36826;47.514;19.056;2022-09-09T09:22:35;1.95;;;0.20;;
50858;SDS011;36826;47.514;19.056;2022-09-09T09:30:34;1.60;;;0.10;;
50858;SDS011;36826;47.514;19.056;2022-09-09T09:36:15;0.40;;;0.10;;
50858;SDS011;36826;47.514;19.056;2022-09-09T09:38:53;0.82;;;0.20;;
50858;SDS011;36826;47.514;19.056;2022-09-09T09:41:41;0.85;;;0.20;;
50858;SDS011;36826;47.514;19.056;2022-09-09T09:44:25;0.93;;;0.20;;
50858;SDS011;36826;47.514;19.056;2022-09-09T09:47:13;0.68;;;0.10;;
50858;SDS011;36826;47.514;19.056;2022-09-09T09:52:34;0.60;;;0.10;;
50858;SDS011;36826;47.514;19.056;2022-09-09T09:55:12;0.73;;;0.10;;
50858;SDS011;36826;47.514;19.056;2022-09-09T09:58:13;0.60;;;0.10;;
50858;SDS011;36826;47.514;19.056;2022-09-09T10:00:53;1.67;;;0.10;;
50858;SDS011;36826;47.514;19.056;2022-09-09T10:06:05;0.75;;;0.20;;
50858;SDS011;36826;47.514;19.056;2022-09-09T10:08:43;0.65;;;0.00;;
50858;SDS011;36826;47.514;19.056;2022-09-09T10:19:53;1.85;;;0.30;;
50858;SDS011;36826;47.514;19.056;2022-09-09T10:22:27;1.33;;;0.10;;
50858;SDS011;36826;47.514;19.056;2022-09-09T10:30:49;1.90;;;0.10;;
50858;SDS011;36826;47.514;19.056;2022-09-09T10:33:56;0.68;;;0.10;;
50858;SDS011;36826;47.514;19.056;2022-09-09T10:36:56;1.13;;;0.10;;
50858;SDS011;36826;47.514;19.056;2022-09-09T10:42:14;0.40;;;0.10;;
50858;SDS011;36826;47.514;19.056;2022-09-09T10:48:05;0.43;;;0.10;;
50858;SDS011;36826;47.514;19.056;2022-09-09T10:56:37;1.63;;;0.10;;
50858;SDS011;36826;47.514;19.056;2022-09-09T10:59:09;1.15;;;0.30;;
50858;SDS011;36826;47.514;19.056;2022-09-09T11:01:41;0.70;;;0.10;;
50858;SDS011;36826;47.514;19.056;2022-09-09T11:07:51;0.30;;;0.10;;
50858;SDS011;36826;47.514;19.056;2022-09-09T11:19:04;0.70;;;0.10;;
50858;SDS011;36826;47.514;19.056;2022-09-09T11:21:50;2.55;;;0.10;;
50858;SDS011;36826;47.514;19.056;2022-09-09T11:38:18;2.08;;;0.10;;
50858;SDS011;36826;47.514;19.056;2022-09-09T11:40:58;1.38;;;0.10;;
50858;SDS011;36826;47.514;19.056;2022-09-09T11:43:38;0.57;;;0.10;;
50858;SDS011;36826;47.514;19.056;2022-09-09T11:46:12;1.80;;;0.10;;
50858;SDS011;36826;47.514;19.056;2022-09-09T11:48:56;1.60;;;0.10;;
50858;SDS011;36826;47.514;19.056;2022-09-09T11:56:56;1.00;;;0.15;;
50858;SDS011;36826;47.514;19.056;2022-09-09T11:59:30;5.10;;;0.10;;
50858;SDS011;36826;47.514;19.056;2022-09-09T12:07:38;2.05;;;0.30;;
50858;SDS011;36826;47.514;19.056;2022-09-09T12:10:52;0.68;;;0.10;;
50858;SDS011;36826;47.514;19.056;2022-09-09T12:13:19;3.03;;;0.10;;
50858;SDS011;36826;47.514;19.056;2022-09-09T12:15:52;0.70;;;0.10;;
50858;SDS011;36826;47.514;19.056;2022-09-09T12:18:36;1.60;;;0.17;;
50858;SDS011;36826;47.514;19.056;2022-09-09T12:21:14;1.17;;;0.10;;
50858;SDS011;36826;47.514;19.056;2022-09-09T12:24:13;0.65;;;0.10;;
50858;SDS011;36826;47.514;19.056;2022-09-09T12:27:11;0.75;;;0.10;;
50858;SDS011;36826;47.514;19.056;2022-09-09T12:29:43;2.05;;;0.20;;
50858;SDS011;36826;47.514;19.056;2022-09-09T12:32:35;0.47;;;0.10;;
50858;SDS011;36826;47.514;19.056;2022-09-09T12:35:08;0.80;;;0.10;;
50858;SDS011;36826;47.514;19.056;2022-09-09T12:40:29;1.92;;;0.10;;
50858;SDS011;36826;47.514;19.056;2022-09-09T12:42:57;0.75;;;0.10;;
50858;SDS011;36826;47.514;19.056;2022-09-09T12:45:27;2.17;;;0.10;;
50858;SDS011;36826;47.514;19.056;2022-09-09T12:48:00;0.90;;;0.08;;
50858;SDS011;36826;47.514;19.056;2022-09-09T12:50:37;1.58;;;0.10;;
50858;SDS011;36826;47.514;19.056;2022-09-09T12:53:27;2.20;;;0.30;;
50858;SDS011;36826;47.514;19.056;2022-09-09T12:56:06;1.40;;;0.10;;
50858;SDS011;36826;47.514;19.056;2022-09-09T12:58:59;1.17;;;0.10;;
50858;SDS011;36826;47.514;19.056;2022-09-09T13:01:36;0.68;;;0.10;;
50858;SDS011;36826;47.514;19.056;2022-09-09T13:04:02;0.77;;;0.10;;
50858;SDS011;36826;47.514;19.056;2022-09-09T13:06:46;2.22;;;0.10;;
50858;SDS011;36826;47.514;19.056;2022-09-09T13:09:12;1.10;;;0.10;;
50858;SDS011;36826;47.514;19.056;2022-09-09T13:11:44;1.08;;;0.10;;
50858;SDS011;36826;47.514;19.056;2022-09-09T13:14:34;0.70;;;0.10;;
50858;SDS011;36826;47.514;19.056;2022-09-09T13:17:05;0.40;;;0.10;;
50858;SDS011;36826;47.514;19.056;2022-09-09T13:19:34;0.68;;;0.10;;
50858;SDS011;36826;47.514;19.056;2022-09-09T13:22:19;2.90;;;0.10;;
50858;SDS011;36826;47.514;19.056;2022-09-09T13:25:01;1.65;;;0.30;;
50858;SDS011;36826;47.514;19.056;2022-09-09T13:27:50;2.70;;;0.10;;
50858;SDS011;36826;47.514;19.056;2022-09-09T13:35:49;2.47;;;0.10;;
50858;SDS011;36826;47.514;19.056;2022-09-09T13:38:19;1.20;;;0.10;;
50858;SDS011;36826;47.514;19.056;2022-09-09T13:40:56;0.28;;;0.10;;
50858;SDS011;36826;47.514;19.056;2022-09-09T13:43:26;1.05;;;0.10;;
50858;SDS011;36826;47.514;19.056;2022-09-09T13:46:25;1.60;;;0.10;;
50858;SDS011;36826;47.514;19.056;2022-09-09T13:49:02;1.42;;;0.20;;
50858;SDS011;36826;47.514;19.056;2022-09-09T13:52:02;1.80;;;0.10;;
50858;SDS011;36826;47.514;19.056;2022-09-09T13:54:37;1.38;;;0.20;;
50858;SDS011;36826;47.514;19.056;2022-09-09T13:57:15;0.22;;;0.10;;
50858;SDS011;36826;47.514;19.056;2022-09-09T13:59:48;1.10;;;0.10;;
50858;SDS011;36826;47.514;19.056;2022-09-09T14:02:17;2.17;;;0.20;;
50858;SDS011;36826;47.514;19.056;2022-09-09T14:04:44;0.98;;;0.10;;
50858;SDS011;36826;47.514;19.056;2022-09-09T14:07:14;0.90;;;0.20;;
50858;SDS011;36826;47.514;19.056;2022-09-09T14:09:41;0.25;;;0.00;;
50858;SDS011;36826;47.514;19.056;2022-09-09T14:12:11;0.60;;;0.10;;
50858;SDS011;36826;47.514;19.056;2022-09-09T14:14:37;0.63;;;0.10;;
50858;SDS011;36826;47.514;19.056;2022-09-09T14:17:04;0.93;;;0.10;;
50858;SDS011;36826;47.514;19.056;2022-09-09T14:19:33;0.95;;;0.10;;
50858;SDS011;36826;47.514;19.056;2022-09-09T14:22:02;1.55;;;0.20;;
50858;SDS011;36826;47.514;19.056;2022-09-09T14:24:32;0.47;;;0.08;;
50858;SDS011;36826;47.514;19.056;2022-09-09T14:27:00;0.52;;;0.10;;
50858;SDS011;36826;47.514;19.056;2022-09-09T14:29:35;0.65;;;0.10;;
50858;SDS011;36826;47.514;19.056;2022-09-09T14:32:07;3.63;;;0.10;;
50858;SDS011;36826;47.514;19.056;2022-09-09T14:34:34;2.03;;;0.10;;
50858;SDS011;36826;47.514;19.056;2022-09-09T14:37:00;1.17;;;0.30;;
50858;SDS011;36826;47.514;19.056;2022-09-09T14:39:44;1.17;;;0.10;;
50858;SDS011;36826;47.514;19.056;2022-09-09T14:42:37;2.78;;;0.10;;
50858;SDS011;36826;47.514;19.056;2022-09-09T14:45:03;1.40;;;0.07;;
50858;SDS011;36826;47.514;19.056;2022-09-09T14:47:38;0.70;;;0.10;;
50858;SDS011;36826;47.514;19.056;2022-09-09T14:50:12;0.43;;;0.10;;
50858;SDS011;36826;47.514;19.056;2022-09-09T14:53:01;0.90;;;0.10;;
50858;SDS011;36826;47.514;19.056;2022-09-09T14:55:35;0.75;;;0.10;;
50858;SDS011;36826;47.514;19.056;2022-09-09T14:58:07;1.60;;;0.20;;
50858;SDS011;36826;47.514;19.056;2022-09-09T15:00:46;0.52;;;0.10;;
50858;SDS011;36826;47.514;19.056;2022-09-09T15:03:17;1.05;;;0.10;;
50858;SDS011;36826;47.514;19.056;2022-09-09T15:06:11;1.67;;;0.10;;
50858;SDS011;36826;47.514;19.056;2022-09-09T15:08:37;3.17;;;0.20;;
50858;SDS011;36826;47.514;19.056;2022-09-09T15:11:26;2.03;;;0.10;;
50858;SDS011;36826;47.514;19.056;2022-09-09T15:16:23;3.08;;;0.20;;
50858;SDS011;36826;47.514;19.056;2022-09-09T15:18:53;1.95;;;0.10;;
50858;SDS011;36826;47.514;19.056;2022-09-09T15:21:27;1.40;;;0.10;;
50858;SDS011;36826;47.514;19.056;2022-09-09T15:23:57;0.55;;;0.10;;
50858;SDS011;36826;47.514;19.056;2022-09-09T15:26:26;1.05;;;0.10;;
50858;SDS011;36826;47.514;19.056;2022-09-09T15:28:54;0.60;;;0.10;;
50858;SDS011;36826;47.514;19.056;2022-09-09T15:31:22;2.33;;;0.10;;
50858;SDS011;36826;47.514;19.056;2022-09-09T15:33:50;0.90;;;0.10;;
50858;SDS011;36826;47.514;19.056;2022-09-09T15:38:43;2.00;;;0.20;;
50858;SDS011;36826;47.514;19.056;2022-09-09T15:41:19;0.30;;;0.10;;
50858;SDS011;36826;47.514;19.056;2022-09-09T15:43:49;0.55;;;0.10;;
50858;SDS011;36826;47.514;19.056;2022-09-09T15:46:29;0.73;;;0.10;;
50858;SDS011;36826;47.514;19.056;2022-09-09T15:51:32;1.60;;;0.30;;
50858;SDS011;36826;47.514;19.056;2022-09-09T15:53:58;0.30;;;0.03;;
50858;SDS011;36826;47.514;19.056;2022-09-09T15:56:26;0.73;;;0.10;;
50858;SDS011;36826;47.514;19.056;2022-09-09T15:58:53;0.73;;;0.10;;
50858;SDS011;36826;47.514;19.056;2022-09-09T16:01:20;0.75;;;0.10;;
50858;SDS011;36826;47.514;19.056;2022-09-09T16:04:29;1.55;;;0.10;;
50858;SDS011;36826;47.514;19.056;2022-09-09T16:07:06;0.47;;;0.00;;
50858;SDS011;36826;47.514;19.056;2022-09-09T16:09:35;0.90;;;0.10;;
50858;SDS011;36826;47.514;19.056;2022-09-09T16:12:02;0.50;;;0.10;;
50858;SDS011;36826;47.514;19.056;2022-09-09T16:14:32;1.55;;;0.20;;
50858;SDS011;36826;47.514;19.056;2022-09-09T16:19:27;1.35;;;0.10;;
50858;SDS011;36826;47.514;19.056;2022-09-09T16:21:53;0.68;;;0.10;;
50858;SDS011;36826;47.514;19.056;2022-09-09T16:24:26;0.85;;;0.10;;
50858;SDS011;36826;47.514;19.056;2022-09-09T16:27:02;1.95;;;0.10;;
50858;SDS011;36826;47.514;19.056;2022-09-09T16:29:32;2.10;;;0.20;;
50858;SDS011;36826;47.514;19.056;2022-09-09T16:31:59;1.75;;;0.10;;
50858;SDS011;36826;47.514;19.056;2022-09-09T16:34:25;1.90;;;0.20;;
50858;SDS011;36826;47.514;19.056;2022-09-09T16:36:50;1.10;;;0.30;;
50858;SDS011;36826;47.514;19.056;2022-09-09T16:39:21;1.80;;;0.28;;
50858;SDS011;36826;47.514;19.056;2022-09-09T16:41:50;1.42;;;0.30;;
50858;SDS011;36826;47.514;19.056;2022-09-09T16:44:17;1.48;;;0.32;;
50858;SDS011;36826;47.514;19.056;2022-09-09T16:46:44;2.33;;;0.40;;
50858;SDS011;36826;47.514;19.056;2022-09-09T16:49:13;0.90;;;0.10;;
50858;SDS011;36826;47.514;19.056;2022-09-09T16:51:42;1.73;;;0.30;;
50858;SDS011;36826;47.514;19.056;2022-09-09T16:54:12;1.10;;;0.13;;
50858;SDS011;36826;47.514;19.056;2022-09-09T16:56:39;1.15;;;0.10;;
50858;SDS011;36826;47.514;19.056;2022-09-09T16:59:18;1.33;;;0.30;;
50858;SDS011;36826;47.514;19.056;2022-09-09T17:01:46;2.53;;;0.20;;
50858;SDS011;36826;47.514;19.056;2022-09-09T17:06:41;2.03;;;0.28;;
50858;SDS011;36826;47.514;19.056;2022-09-09T17:09:11;2.67;;;0.30;;
50858;SDS011;36826;47.514;19.056;2022-09-09T17:11:38;1.45;;;0.40;;
50858;SDS011;36826;47.514;19.056;2022-09-09T17:14:05;1.27;;;0.30;;
50858;SDS011;36826;47.514;19.056;2022-09-09T17:16:35;2.65;;;0.45;;
50858;SDS011;36826;47.514;19.056;2022-09-09T17:19:03;1.83;;;0.60;;
50858;SDS011;36826;47.514;19.056;2022-09-09T17:21:36;1.85;;;0.40;;
50858;SDS011;36826;47.514;19.056;2022-09-09T17:24:03;4.17;;;0.63;;
50858;SDS011;36826;47.514;19.056;2022-09-09T17:26:32;1.15;;;0.40;;
50858;SDS011;36826;47.514;19.056;2022-09-09T17:29:00;1.85;;;0.60;;
50858;SDS011;36826;47.514;19.056;2022-09-09T17:31:32;1.35;;;0.50;;
50858;SDS011;36826;47.514;19.056;2022-09-09T17:34:00;1.90;;;0.63;;
50858;SDS011;36826;47.514;19.056;2022-09-09T17:36:27;4.15;;;0.70;;
50858;SDS011;36826;47.514;19.056;2022-09-09T17:38:58;1.75;;;0.60;;
50858;SDS011;36826;47.514;19.056;2022-09-09T17:41:29;2.03;;;0.63;;
50858;SDS011;36826;47.514;19.056;2022-09-09T17:44:09;2.55;;;0.85;;
50858;SDS011;36826;47.514;19.056;2022-09-09T17:46:37;1.92;;;0.93;;
50858;SDS011;36826;47.514;19.056;2022-09-09T17:49:06;2.47;;;0.82;;
50858;SDS011;36826;47.514;19.056;2022-09-09T17:51:38;3.38;;;0.45;;
50858;SDS011;36826;47.514;19.056;2022-09-09T17:54:16;4.05;;;2.42;;
50858;SDS011;36826;47.514;19.056;2022-09-09T17:56:56;4.22;;;1.63;;
50858;SDS011;36826;47.514;19.056;2022-09-09T17:59:26;5.20;;;1.30;;
50858;SDS011;36826;47.514;19.056;2022-09-09T18:01:52;2.65;;;1.10;;